sensor_id;sensor_type;location;lat;lon;timestamp;temperature;humidity
22779;DHT22;11556;51.194;3.800;2023-04-24T00:00:25;10.90;99.90
22779;DHT22;11556;51.194;3.800;2023-04-24T00:02:51;10.80;99.90
22779;DHT22;11556;51.194;3.800;2023-04-24T00:05:17;10.90;99.90
22779;DHT22;11556;51.194;3.800;2023-04-24T00:07:44;10.90;99.90
22779;DHT22;11556;51.194;3.800;2023-04-24T00:10:11;10.90;99.90
22779;DHT22;11556;51.194;3.800;2023-04-24T00:12:37;10.80;99.90
22779;DHT22;11556;51.194;3.800;2023-04-24T00:15:03;10.90;99.90
22779;DHT22;11556;51.194;3.800;2023-04-24T00:17:30;10.90;99.90
22779;DHT22;11556;51.194;3.800;2023-04-24T00:19:56;10.70;99.90
22779;DHT22;11556;51.194;3.800;2023-04-24T00:22:27;10.60;99.90
22779;DHT22;11556;51.194;3.800;2023-04-24T00:24:53;10.60;99.90
22779;DHT22;11556;51.194;3.800;2023-04-24T00:27:19;10.60;99.90
22779;DHT22;11556;51.194;3.800;2023-04-24T00:29:44;10.60;99.90
22779;DHT22;11556;51.194;3.800;2023-04-24T00:32:10;10.50;99.90
22779;DHT22;11556;51.194;3.800;2023-04-24T00:34:36;10.50;99.90
22779;DHT22;11556;51.194;3.800;2023-04-24T00:37:01;10.40;99.90
22779;DHT22;11556;51.194;3.800;2023-04-24T00:39:27;10.40;99.90
22779;DHT22;11556;51.194;3.800;2023-04-24T00:41:53;10.40;99.90
22779;DHT22;11556;51.194;3.800;2023-04-24T00:44:20;10.40;99.90
22779;DHT22;11556;51.194;3.800;2023-04-24T00:46:46;10.40;99.90
22779;DHT22;11556;51.194;3.800;2023-04-24T00:49:13;10.60;99.90
22779;DHT22;11556;51.194;3.800;2023-04-24T00:51:39;10.70;99.90
22779;DHT22;11556;51.194;3.800;2023-04-24T00:54:06;10.70;99.90
22779;DHT22;11556;51.194;3.800;2023-04-24T00:56:32;10.70;99.90
22779;DHT22;11556;51.194;3.800;2023-04-24T00:58:58;10.70;99.90
22779;DHT22;11556;51.194;3.800;2023-04-24T01:01:24;10.70;99.90
22779;DHT22;11556;51.194;3.800;2023-04-24T01:03:51;10.70;99.90
22779;DHT22;11556;51.194;3.800;2023-04-24T01:06:18;10.70;99.90
22779;DHT22;11556;51.194;3.800;2023-04-24T01:08:45;10.50;99.90
22779;DHT22;11556;51.194;3.800;2023-04-24T01:11:12;10.50;99.90
22779;DHT22;11556;51.194;3.800;2023-04-24T01:13:37;10.40;99.90
22779;DHT22;11556;51.194;3.800;2023-04-24T01:16:03;10.40;99.90
22779;DHT22;11556;51.194;3.800;2023-04-24T01:18:29;10.40;99.90
22779;DHT22;11556;51.194;3.800;2023-04-24T01:20:58;10.30;99.90
22779;DHT22;11556;51.194;3.800;2023-04-24T01:23:24;10.40;99.90
22779;DHT22;11556;51.194;3.800;2023-04-24T01:25:50;10.30;99.90
22779;DHT22;11556;51.194;3.800;2023-04-24T01:28:16;10.20;99.90
22779;DHT22;11556;51.194;3.800;2023-04-24T01:30:43;10.20;99.90
22779;DHT22;11556;51.194;3.800;2023-04-24T01:33:09;10.30;99.90
22779;DHT22;11556;51.194;3.800;2023-04-24T01:35:36;10.30;99.90
22779;DHT22;11556;51.194;3.800;2023-04-24T01:38:02;10.40;99.90
22779;DHT22;11556;51.194;3.800;2023-04-24T01:40:28;10.30;99.90
22779;DHT22;11556;51.194;3.800;2023-04-24T01:42:54;10.30;99.90
22779;DHT22;11556;51.194;3.800;2023-04-24T01:45:20;10.20;99.90
22779;DHT22;11556;51.194;3.800;2023-04-24T01:47:46;10.00;99.90
22779;DHT22;11556;51.194;3.800;2023-04-24T01:50:12;10.00;99.90
22779;DHT22;11556;51.194;3.800;2023-04-24T01:52:37;9.90;99.90
22779;DHT22;11556;51.194;3.800;2023-04-24T01:55:04;9.90;99.90
22779;DHT22;11556;51.194;3.800;2023-04-24T01:57:33;9.80;99.90
22779;DHT22;11556;51.194;3.800;2023-04-24T01:59:59;9.80;99.90
22779;DHT22;11556;51.194;3.800;2023-04-24T02:02:25;9.80;99.90
22779;DHT22;11556;51.194;3.800;2023-04-24T02:04:53;9.70;99.90
22779;DHT22;11556;51.194;3.800;2023-04-24T02:07:19;9.60;99.90
22779;DHT22;11556;51.194;3.800;2023-04-24T02:09:45;9.60;99.90
22779;DHT22;11556;51.194;3.800;2023-04-24T02:12:11;9.80;99.90
22779;DHT22;11556;51.194;3.800;2023-04-24T02:14:37;10.00;99.90
22779;DHT22;11556;51.194;3.800;2023-04-24T02:17:02;10.20;99.90
22779;DHT22;11556;51.194;3.800;2023-04-24T02:19:28;10.30;99.90
22779;DHT22;11556;51.194;3.800;2023-04-24T02:21:54;10.30;99.90
22779;DHT22;11556;51.194;3.800;2023-04-24T02:24:20;10.30;99.90
22779;DHT22;11556;51.194;3.800;2023-04-24T02:26:46;10.40;99.90
22779;DHT22;11556;51.194;3.800;2023-04-24T02:29:11;10.50;99.90
22779;DHT22;11556;51.194;3.800;2023-04-24T02:31:37;10.60;99.90
22779;DHT22;11556;51.194;3.800;2023-04-24T02:34:03;10.60;99.90
22779;DHT22;11556;51.194;3.800;2023-04-24T02:36:28;10.70;99.90
22779;DHT22;11556;51.194;3.800;2023-04-24T02:38:54;10.70;99.90
22779;DHT22;11556;51.194;3.800;2023-04-24T02:41:19;10.80;99.90
22779;DHT22;11556;51.194;3.800;2023-04-24T02:43:45;10.90;99.90
22779;DHT22;11556;51.194;3.800;2023-04-24T02:46:11;10.80;99.90
22779;DHT22;11556;51.194;3.800;2023-04-24T02:48:36;10.80;99.90
22779;DHT22;11556;51.194;3.800;2023-04-24T02:51:02;10.90;99.90
22779;DHT22;11556;51.194;3.800;2023-04-24T02:53:28;10.90;99.90
22779;DHT22;11556;51.194;3.800;2023-04-24T02:55:56;10.90;99.90
22779;DHT22;11556;51.194;3.800;2023-04-24T02:58:22;10.80;99.90
22779;DHT22;11556;51.194;3.800;2023-04-24T03:00:48;10.80;99.90
22779;DHT22;11556;51.194;3.800;2023-04-24T03:03:14;10.80;99.90
22779;DHT22;11556;51.194;3.800;2023-04-24T03:05:40;10.80;99.90
22779;DHT22;11556;51.194;3.800;2023-04-24T03:08:06;10.70;99.90
22779;DHT22;11556;51.194;3.800;2023-04-24T03:10:31;10.70;99.90
22779;DHT22;11556;51.194;3.800;2023-04-24T03:12:57;10.70;99.90
22779;DHT22;11556;51.194;3.800;2023-04-24T03:15:23;10.60;99.90
22779;DHT22;11556;51.194;3.800;2023-04-24T03:17:49;10.60;99.90
22779;DHT22;11556;51.194;3.800;2023-04-24T03:20:15;10.60;99.90
22779;DHT22;11556;51.194;3.800;2023-04-24T03:22:41;10.60;99.90
22779;DHT22;11556;51.194;3.800;2023-04-24T03:25:07;10.50;99.90
22779;DHT22;11556;51.194;3.800;2023-04-24T03:27:34;10.50;99.90
22779;DHT22;11556;51.194;3.800;2023-04-24T03:30:00;10.40;99.90
22779;DHT22;11556;51.194;3.800;2023-04-24T03:32:26;10.40;99.90
22779;DHT22;11556;51.194;3.800;2023-04-24T03:34:52;10.30;99.90
22779;DHT22;11556;51.194;3.800;2023-04-24T03:37:17;10.30;99.90
22779;DHT22;11556;51.194;3.800;2023-04-24T03:39:43;10.40;99.90
22779;DHT22;11556;51.194;3.800;2023-04-24T03:42:09;10.30;99.90
22779;DHT22;11556;51.194;3.800;2023-04-24T03:44:35;10.40;99.90
22779;DHT22;11556;51.194;3.800;2023-04-24T03:47:01;10.40;99.90
22779;DHT22;11556;51.194;3.800;2023-04-24T03:49:27;10.40;99.90
22779;DHT22;11556;51.194;3.800;2023-04-24T03:51:53;10.40;99.90
22779;DHT22;11556;51.194;3.800;2023-04-24T03:54:19;10.40;99.90
22779;DHT22;11556;51.194;3.800;2023-04-24T03:56:45;10.40;99.90
22779;DHT22;11556;51.194;3.800;2023-04-24T03:59:11;10.40;99.90
22779;DHT22;11556;51.194;3.800;2023-04-24T04:01:37;10.30;99.90
22779;DHT22;11556;51.194;3.800;2023-04-24T04:04:04;10.30;99.90
22779;DHT22;11556;51.194;3.800;2023-04-24T04:06:29;10.30;99.90
22779;DHT22;11556;51.194;3.800;2023-04-24T04:08:57;10.30;99.90
22779;DHT22;11556;51.194;3.800;2023-04-24T04:11:23;10.20;99.90
22779;DHT22;11556;51.194;3.800;2023-04-24T04:13:49;10.20;99.90
22779;DHT22;11556;51.194;3.800;2023-04-24T04:16:14;10.20;99.90
22779;DHT22;11556;51.194;3.800;2023-04-24T04:18:42;10.20;99.90
22779;DHT22;11556;51.194;3.800;2023-04-24T04:21:08;10.20;99.90
22779;DHT22;11556;51.194;3.800;2023-04-24T04:23:34;10.20;99.90
22779;DHT22;11556;51.194;3.800;2023-04-24T04:26:00;10.20;99.90
22779;DHT22;11556;51.194;3.800;2023-04-24T04:28:26;10.20;99.90
22779;DHT22;11556;51.194;3.800;2023-04-24T04:30:52;10.20;99.90
22779;DHT22;11556;51.194;3.800;2023-04-24T04:33:20;10.10;99.90
22779;DHT22;11556;51.194;3.800;2023-04-24T04:35:46;10.10;99.90
22779;DHT22;11556;51.194;3.800;2023-04-24T04:38:14;10.10;99.90
22779;DHT22;11556;51.194;3.800;2023-04-24T04:40:40;10.00;99.90
22779;DHT22;11556;51.194;3.800;2023-04-24T04:43:06;10.10;99.90
22779;DHT22;11556;51.194;3.800;2023-04-24T04:45:32;10.10;99.90
22779;DHT22;11556;51.194;3.800;2023-04-24T04:47:59;10.10;99.90
22779;DHT22;11556;51.194;3.800;2023-04-24T04:50:26;10.10;99.90
22779;DHT22;11556;51.194;3.800;2023-04-24T04:52:52;10.10;99.90
22779;DHT22;11556;51.194;3.800;2023-04-24T04:55:18;10.10;99.90
22779;DHT22;11556;51.194;3.800;2023-04-24T04:57:48;10.20;99.90
22779;DHT22;11556;51.194;3.800;2023-04-24T05:00:14;10.20;99.90
22779;DHT22;11556;51.194;3.800;2023-04-24T05:02:39;10.20;99.90
22779;DHT22;11556;51.194;3.800;2023-04-24T05:05:06;10.20;99.90
22779;DHT22;11556;51.194;3.800;2023-04-24T05:07:33;10.30;99.90
22779;DHT22;11556;51.194;3.800;2023-04-24T05:09:58;10.30;99.90
22779;DHT22;11556;51.194;3.800;2023-04-24T05:12:24;10.30;99.90
22779;DHT22;11556;51.194;3.800;2023-04-24T05:14:52;10.30;99.90
22779;DHT22;11556;51.194;3.800;2023-04-24T05:17:18;10.40;99.90
22779;DHT22;11556;51.194;3.800;2023-04-24T05:19:44;10.40;99.90
22779;DHT22;11556;51.194;3.800;2023-04-24T05:22:10;10.50;99.90
22779;DHT22;11556;51.194;3.800;2023-04-24T05:24:37;10.50;99.90
22779;DHT22;11556;51.194;3.800;2023-04-24T05:27:03;10.50;99.90
22779;DHT22;11556;51.194;3.800;2023-04-24T05:29:32;10.40;99.90
22779;DHT22;11556;51.194;3.800;2023-04-24T05:31:59;10.50;99.90
22779;DHT22;11556;51.194;3.800;2023-04-24T05:34:24;10.50;99.90
22779;DHT22;11556;51.194;3.800;2023-04-24T05:36:50;10.60;99.90
22779;DHT22;11556;51.194;3.800;2023-04-24T05:39:17;10.60;99.90
22779;DHT22;11556;51.194;3.800;2023-04-24T05:41:43;10.60;99.90
22779;DHT22;11556;51.194;3.800;2023-04-24T05:44:08;10.60;99.90
22779;DHT22;11556;51.194;3.800;2023-04-24T05:46:34;10.60;99.90
22779;DHT22;11556;51.194;3.800;2023-04-24T05:49:00;10.70;99.90
22779;DHT22;11556;51.194;3.800;2023-04-24T05:51:27;10.60;99.90
22779;DHT22;11556;51.194;3.800;2023-04-24T05:53:53;10.60;99.90
22779;DHT22;11556;51.194;3.800;2023-04-24T05:56:19;10.50;99.90
22779;DHT22;11556;51.194;3.800;2023-04-24T05:58:45;10.60;99.90
22779;DHT22;11556;51.194;3.800;2023-04-24T06:01:12;10.60;99.90
22779;DHT22;11556;51.194;3.800;2023-04-24T06:03:38;10.60;99.90
22779;DHT22;11556;51.194;3.800;2023-04-24T06:06:06;10.60;99.90
22779;DHT22;11556;51.194;3.800;2023-04-24T06:08:31;10.50;99.90
22779;DHT22;11556;51.194;3.800;2023-04-24T06:10:58;10.40;99.90
22779;DHT22;11556;51.194;3.800;2023-04-24T06:13:24;10.40;99.90
22779;DHT22;11556;51.194;3.800;2023-04-24T06:15:49;10.40;99.90
22779;DHT22;11556;51.194;3.800;2023-04-24T06:18:15;10.40;99.90
22779;DHT22;11556;51.194;3.800;2023-04-24T06:20:41;10.50;99.90
22779;DHT22;11556;51.194;3.800;2023-04-24T06:23:06;10.60;99.90
22779;DHT22;11556;51.194;3.800;2023-04-24T06:25:32;10.60;99.90
22779;DHT22;11556;51.194;3.800;2023-04-24T06:27:58;10.80;99.90
22779;DHT22;11556;51.194;3.800;2023-04-24T06:30:24;11.00;99.90
22779;DHT22;11556;51.194;3.800;2023-04-24T06:32:50;11.10;99.90
22779;DHT22;11556;51.194;3.800;2023-04-24T06:35:16;11.20;99.90
22779;DHT22;11556;51.194;3.800;2023-04-24T06:37:42;11.30;99.90
22779;DHT22;11556;51.194;3.800;2023-04-24T06:40:09;11.50;99.90
22779;DHT22;11556;51.194;3.800;2023-04-24T06:42:35;11.60;99.90
22779;DHT22;11556;51.194;3.800;2023-04-24T06:45:01;11.80;99.90
22779;DHT22;11556;51.194;3.800;2023-04-24T06:47:27;11.90;99.90
22779;DHT22;11556;51.194;3.800;2023-04-24T06:49:53;12.00;99.90
22779;DHT22;11556;51.194;3.800;2023-04-24T06:52:19;12.00;99.90
22779;DHT22;11556;51.194;3.800;2023-04-24T06:54:45;12.20;99.90
22779;DHT22;11556;51.194;3.800;2023-04-24T06:57:11;12.20;99.90
22779;DHT22;11556;51.194;3.800;2023-04-24T06:59:37;12.30;99.90
22779;DHT22;11556;51.194;3.800;2023-04-24T07:02:02;12.40;99.90
22779;DHT22;11556;51.194;3.800;2023-04-24T07:04:29;12.40;99.90
22779;DHT22;11556;51.194;3.800;2023-04-24T07:06:55;12.50;99.90
22779;DHT22;11556;51.194;3.800;2023-04-24T07:09:22;12.50;99.90
22779;DHT22;11556;51.194;3.800;2023-04-24T07:11:49;12.40;99.90
22779;DHT22;11556;51.194;3.800;2023-04-24T07:14:15;12.20;99.90
22779;DHT22;11556;51.194;3.800;2023-04-24T07:16:42;11.90;99.90
22779;DHT22;11556;51.194;3.800;2023-04-24T07:19:08;11.80;99.90
22779;DHT22;11556;51.194;3.800;2023-04-24T07:21:34;11.70;99.90
22779;DHT22;11556;51.194;3.800;2023-04-24T07:24:00;11.70;99.90
22779;DHT22;11556;51.194;3.800;2023-04-24T07:26:27;11.90;99.90
22779;DHT22;11556;51.194;3.800;2023-04-24T07:28:53;12.10;99.90
22779;DHT22;11556;51.194;3.800;2023-04-24T07:31:19;12.30;99.90
22779;DHT22;11556;51.194;3.800;2023-04-24T07:33:45;12.80;99.90
22779;DHT22;11556;51.194;3.800;2023-04-24T07:36:11;13.20;99.90
22779;DHT22;11556;51.194;3.800;2023-04-24T07:38:47;13.40;99.90
22779;DHT22;11556;51.194;3.800;2023-04-24T07:41:13;13.60;99.90
22779;DHT22;11556;51.194;3.800;2023-04-24T07:43:39;14.40;99.90
22779;DHT22;11556;51.194;3.800;2023-04-24T07:46:05;15.70;99.90
22779;DHT22;11556;51.194;3.800;2023-04-24T07:48:31;15.90;99.90
22779;DHT22;11556;51.194;3.800;2023-04-24T07:50:57;15.40;99.90
22779;DHT22;11556;51.194;3.800;2023-04-24T07:53:22;14.80;99.90
22779;DHT22;11556;51.194;3.800;2023-04-24T07:55:48;14.10;99.90
22779;DHT22;11556;51.194;3.800;2023-04-24T07:58:14;13.30;99.90
22779;DHT22;11556;51.194;3.800;2023-04-24T08:00:40;12.70;99.90
22779;DHT22;11556;51.194;3.800;2023-04-24T08:03:06;12.40;99.90
22779;DHT22;11556;51.194;3.800;2023-04-24T08:05:31;12.30;99.90
22779;DHT22;11556;51.194;3.800;2023-04-24T08:07:58;12.40;99.90
22779;DHT22;11556;51.194;3.800;2023-04-24T08:10:24;12.70;99.90
22779;DHT22;11556;51.194;3.800;2023-04-24T08:12:50;13.00;99.90
22779;DHT22;11556;51.194;3.800;2023-04-24T08:15:15;13.10;99.90
22779;DHT22;11556;51.194;3.800;2023-04-24T08:17:41;13.00;99.90
22779;DHT22;11556;51.194;3.800;2023-04-24T08:20:08;12.90;99.90
22779;DHT22;11556;51.194;3.800;2023-04-24T08:22:39;13.30;99.90
22779;DHT22;11556;51.194;3.800;2023-04-24T08:25:05;14.30;99.90
22779;DHT22;11556;51.194;3.800;2023-04-24T08:27:31;15.50;99.90
22779;DHT22;11556;51.194;3.800;2023-04-24T08:29:57;16.80;99.90
22779;DHT22;11556;51.194;3.800;2023-04-24T08:32:23;17.90;99.90
22779;DHT22;11556;51.194;3.800;2023-04-24T08:34:49;18.10;99.90
22779;DHT22;11556;51.194;3.800;2023-04-24T08:37:15;18.00;99.90
22779;DHT22;11556;51.194;3.800;2023-04-24T08:39:41;18.00;99.90
22779;DHT22;11556;51.194;3.800;2023-04-24T08:42:08;17.70;99.90
22779;DHT22;11556;51.194;3.800;2023-04-24T08:44:35;17.10;99.90
22779;DHT22;11556;51.194;3.800;2023-04-24T08:47:05;16.50;99.90
22779;DHT22;11556;51.194;3.800;2023-04-24T08:49:31;15.90;99.90
22779;DHT22;11556;51.194;3.800;2023-04-24T08:51:57;16.40;99.90
22779;DHT22;11556;51.194;3.800;2023-04-24T08:54:25;17.40;99.90
22779;DHT22;11556;51.194;3.800;2023-04-24T08:56:53;17.80;99.90
22779;DHT22;11556;51.194;3.800;2023-04-24T08:59:19;17.80;99.90
22779;DHT22;11556;51.194;3.800;2023-04-24T09:01:47;17.50;99.90
22779;DHT22;11556;51.194;3.800;2023-04-24T09:04:14;16.80;99.90
22779;DHT22;11556;51.194;3.800;2023-04-24T09:06:41;16.10;99.90
22779;DHT22;11556;51.194;3.800;2023-04-24T09:09:08;15.80;99.90
22779;DHT22;11556;51.194;3.800;2023-04-24T09:11:35;16.00;99.90
22779;DHT22;11556;51.194;3.800;2023-04-24T09:14:01;16.00;99.90
22779;DHT22;11556;51.194;3.800;2023-04-24T09:16:28;15.90;99.90
22779;DHT22;11556;51.194;3.800;2023-04-24T09:18:53;15.70;99.90
22779;DHT22;11556;51.194;3.800;2023-04-24T09:21:21;15.70;99.90
22779;DHT22;11556;51.194;3.800;2023-04-24T09:23:57;16.00;99.90
22779;DHT22;11556;51.194;3.800;2023-04-24T09:26:24;16.20;99.90
22779;DHT22;11556;51.194;3.800;2023-04-24T09:28:51;16.20;99.90
22779;DHT22;11556;51.194;3.800;2023-04-24T09:31:19;15.90;99.90
22779;DHT22;11556;51.194;3.800;2023-04-24T09:34:13;15.80;99.90
22779;DHT22;11556;51.194;3.800;2023-04-24T09:36:41;15.50;99.90
22779;DHT22;11556;51.194;3.800;2023-04-24T09:39:12;15.40;99.90
22779;DHT22;11556;51.194;3.800;2023-04-24T09:41:52;15.40;99.90
22779;DHT22;11556;51.194;3.800;2023-04-24T09:44:20;15.30;99.90
22779;DHT22;11556;51.194;3.800;2023-04-24T09:46:54;15.10;99.90
22779;DHT22;11556;51.194;3.800;2023-04-24T09:49:25;14.90;99.90
22779;DHT22;11556;51.194;3.800;2023-04-24T09:51:51;14.80;99.90
22779;DHT22;11556;51.194;3.800;2023-04-24T09:54:21;14.80;99.90
22779;DHT22;11556;51.194;3.800;2023-04-24T09:56:50;14.90;99.90
22779;DHT22;11556;51.194;3.800;2023-04-24T09:59:18;14.90;99.90
22779;DHT22;11556;51.194;3.800;2023-04-24T10:01:44;14.90;99.90
22779;DHT22;11556;51.194;3.800;2023-04-24T10:04:17;14.70;99.90
22779;DHT22;11556;51.194;3.800;2023-04-24T10:06:43;14.60;99.90
22779;DHT22;11556;51.194;3.800;2023-04-24T10:09:09;14.60;99.90
22779;DHT22;11556;51.194;3.800;2023-04-24T10:11:37;14.50;99.90
22779;DHT22;11556;51.194;3.800;2023-04-24T10:14:05;14.60;99.90
22779;DHT22;11556;51.194;3.800;2023-04-24T10:16:31;14.80;99.90
22779;DHT22;11556;51.194;3.800;2023-04-24T10:18:59;15.00;99.90
22779;DHT22;11556;51.194;3.800;2023-04-24T10:21:26;15.30;99.90
22779;DHT22;11556;51.194;3.800;2023-04-24T10:23:53;15.50;99.90
22779;DHT22;11556;51.194;3.800;2023-04-24T10:26:20;15.70;99.90
22779;DHT22;11556;51.194;3.800;2023-04-24T10:28:47;16.00;99.90
22779;DHT22;11556;51.194;3.800;2023-04-24T10:31:14;16.40;99.90
22779;DHT22;11556;51.194;3.800;2023-04-24T10:33:43;17.10;99.90
22779;DHT22;11556;51.194;3.800;2023-04-24T10:36:13;17.80;99.90
22779;DHT22;11556;51.194;3.800;2023-04-24T10:38:41;18.10;99.90
22779;DHT22;11556;51.194;3.800;2023-04-24T10:41:09;17.90;99.90
22779;DHT22;11556;51.194;3.800;2023-04-24T10:43:39;17.20;99.90
22779;DHT22;11556;51.194;3.800;2023-04-24T10:46:06;16.80;99.90
22779;DHT22;11556;51.194;3.800;2023-04-24T10:48:32;16.60;99.90
22779;DHT22;11556;51.194;3.800;2023-04-24T10:50:58;16.70;99.90
22779;DHT22;11556;51.194;3.800;2023-04-24T10:53:30;17.50;99.90
22779;DHT22;11556;51.194;3.800;2023-04-24T10:56:07;18.00;99.90
22779;DHT22;11556;51.194;3.800;2023-04-24T10:58:38;18.40;99.90
22779;DHT22;11556;51.194;3.800;2023-04-24T11:01:05;19.20;99.90
22779;DHT22;11556;51.194;3.800;2023-04-24T11:03:33;20.00;99.90
22779;DHT22;11556;51.194;3.800;2023-04-24T11:06:07;20.10;96.40
22779;DHT22;11556;51.194;3.800;2023-04-24T11:08:38;19.90;95.90
22779;DHT22;11556;51.194;3.800;2023-04-24T11:19:26;17.80;98.50
22779;DHT22;11556;51.194;3.800;2023-04-24T11:24:39;17.30;99.90
22779;DHT22;11556;51.194;3.800;2023-04-24T11:27:12;17.00;99.90
22779;DHT22;11556;51.194;3.800;2023-04-24T11:34:46;18.40;99.90
22779;DHT22;11556;51.194;3.800;2023-04-24T11:37:13;19.40;97.80
22779;DHT22;11556;51.194;3.800;2023-04-24T11:39:40;20.50;96.60
22779;DHT22;11556;51.194;3.800;2023-04-24T11:42:07;21.10;93.50
22779;DHT22;11556;51.194;3.800;2023-04-24T11:44:36;21.50;93.80
22779;DHT22;11556;51.194;3.800;2023-04-24T11:47:05;21.60;90.70
22779;DHT22;11556;51.194;3.800;2023-04-24T11:49:31;21.30;90.60
22779;DHT22;11556;51.194;3.800;2023-04-24T11:51:56;21.10;90.10
22779;DHT22;11556;51.194;3.800;2023-04-24T11:54:22;20.80;87.40
22779;DHT22;11556;51.194;3.800;2023-04-24T11:56:49;20.30;90.80
22779;DHT22;11556;51.194;3.800;2023-04-24T11:59:15;19.90;91.90
22779;DHT22;11556;51.194;3.800;2023-04-24T12:01:48;19.90;91.20
22779;DHT22;11556;51.194;3.800;2023-04-24T12:04:15;19.80;91.40
22779;DHT22;11556;51.194;3.800;2023-04-24T12:06:59;19.60;90.60
22779;DHT22;11556;51.194;3.800;2023-04-24T12:09:26;19.30;91.60
22779;DHT22;11556;51.194;3.800;2023-04-24T12:11:55;19.10;91.90
22779;DHT22;11556;51.194;3.800;2023-04-24T12:14:22;19.40;91.80
22779;DHT22;11556;51.194;3.800;2023-04-24T12:16:50;20.00;93.50
22779;DHT22;11556;51.194;3.800;2023-04-24T12:19:22;20.40;90.70
22779;DHT22;11556;51.194;3.800;2023-04-24T12:22:03;19.80;90.90
22779;DHT22;11556;51.194;3.800;2023-04-24T12:24:29;19.20;91.60
22779;DHT22;11556;51.194;3.800;2023-04-24T12:26:56;18.70;94.20
22779;DHT22;11556;51.194;3.800;2023-04-24T12:29:22;19.00;93.70
22779;DHT22;11556;51.194;3.800;2023-04-24T12:31:48;19.40;94.20
22779;DHT22;11556;51.194;3.800;2023-04-24T12:34:21;20.10;91.10
22779;DHT22;11556;51.194;3.800;2023-04-24T12:36:48;20.30;89.80
22779;DHT22;11556;51.194;3.800;2023-04-24T12:39:17;20.30;89.50
22779;DHT22;11556;51.194;3.800;2023-04-24T12:42:09;20.00;90.70
22779;DHT22;11556;51.194;3.800;2023-04-24T12:44:36;20.30;87.30
22779;DHT22;11556;51.194;3.800;2023-04-24T12:47:02;20.50;87.60
22779;DHT22;11556;51.194;3.800;2023-04-24T12:49:29;20.60;86.00
22779;DHT22;11556;51.194;3.800;2023-04-24T12:51:55;20.50;86.30
22779;DHT22;11556;51.194;3.800;2023-04-24T12:54:22;20.40;87.20
22779;DHT22;11556;51.194;3.800;2023-04-24T12:56:47;20.70;87.80
22779;DHT22;11556;51.194;3.800;2023-04-24T12:59:13;21.20;84.20
22779;DHT22;11556;51.194;3.800;2023-04-24T13:01:40;21.70;83.80
22779;DHT22;11556;51.194;3.800;2023-04-24T13:04:05;22.50;84.20
22779;DHT22;11556;51.194;3.800;2023-04-24T13:06:31;23.00;79.50
22779;DHT22;11556;51.194;3.800;2023-04-24T13:08:57;22.90;73.30
22779;DHT22;11556;51.194;3.800;2023-04-24T13:11:23;22.10;74.40
22779;DHT22;11556;51.194;3.800;2023-04-24T13:13:51;22.00;78.70
22779;DHT22;11556;51.194;3.800;2023-04-24T13:16:16;22.50;77.10
22779;DHT22;11556;51.194;3.800;2023-04-24T13:18:42;23.10;75.30
22779;DHT22;11556;51.194;3.800;2023-04-24T13:21:07;23.20;70.20
22779;DHT22;11556;51.194;3.800;2023-04-24T13:23:33;23.10;69.10
22779;DHT22;11556;51.194;3.800;2023-04-24T13:26:00;22.30;70.00
22779;DHT22;11556;51.194;3.800;2023-04-24T13:28:26;21.70;74.30
22779;DHT22;11556;51.194;3.800;2023-04-24T13:30:53;20.90;74.80
22779;DHT22;11556;51.194;3.800;2023-04-24T13:33:18;20.20;78.30
22779;DHT22;11556;51.194;3.800;2023-04-24T13:35:44;19.70;82.00
22779;DHT22;11556;51.194;3.800;2023-04-24T13:38:09;19.80;81.90
22779;DHT22;11556;51.194;3.800;2023-04-24T13:40:35;20.50;85.30
22779;DHT22;11556;51.194;3.800;2023-04-24T13:43:01;21.30;80.80
22779;DHT22;11556;51.194;3.800;2023-04-24T13:45:27;22.20;76.80
22779;DHT22;11556;51.194;3.800;2023-04-24T13:47:53;21.70;73.70
22779;DHT22;11556;51.194;3.800;2023-04-24T13:50:20;21.10;74.50
22779;DHT22;11556;51.194;3.800;2023-04-24T13:52:45;20.10;77.10
22779;DHT22;11556;51.194;3.800;2023-04-24T13:55:11;19.70;82.80
22779;DHT22;11556;51.194;3.800;2023-04-24T13:57:37;19.80;81.80
22779;DHT22;11556;51.194;3.800;2023-04-24T14:00:03;19.60;79.40
22779;DHT22;11556;51.194;3.800;2023-04-24T14:02:29;19.60;78.90
22779;DHT22;11556;51.194;3.800;2023-04-24T14:04:55;19.00;81.00
22779;DHT22;11556;51.194;3.800;2023-04-24T14:07:21;18.40;85.00
22779;DHT22;11556;51.194;3.800;2023-04-24T14:09:47;18.10;87.80
22779;DHT22;11556;51.194;3.800;2023-04-24T14:12:12;18.00;84.90
22779;DHT22;11556;51.194;3.800;2023-04-24T14:14:39;17.80;88.30
22779;DHT22;11556;51.194;3.800;2023-04-24T14:17:05;17.60;86.60
22779;DHT22;11556;51.194;3.800;2023-04-24T14:19:31;17.80;89.20
22779;DHT22;11556;51.194;3.800;2023-04-24T14:21:57;18.70;90.30
22779;DHT22;11556;51.194;3.800;2023-04-24T14:24:23;19.10;85.40
22779;DHT22;11556;51.194;3.800;2023-04-24T14:26:49;19.00;84.30
22779;DHT22;11556;51.194;3.800;2023-04-24T14:29:15;19.00;87.50
22779;DHT22;11556;51.194;3.800;2023-04-24T14:31:42;18.90;82.00
22779;DHT22;11556;51.194;3.800;2023-04-24T14:34:08;18.90;84.50
22779;DHT22;11556;51.194;3.800;2023-04-24T14:36:34;19.10;83.90
22779;DHT22;11556;51.194;3.800;2023-04-24T14:39:00;19.10;87.50
22779;DHT22;11556;51.194;3.800;2023-04-24T14:41:30;19.40;83.10
22779;DHT22;11556;51.194;3.800;2023-04-24T14:43:56;19.40;78.70
22779;DHT22;11556;51.194;3.800;2023-04-24T14:46:22;19.20;76.90
22779;DHT22;11556;51.194;3.800;2023-04-24T14:48:48;18.80;78.10
22779;DHT22;11556;51.194;3.800;2023-04-24T14:51:14;19.20;81.70
22779;DHT22;11556;51.194;3.800;2023-04-24T14:53:39;19.90;80.30
22779;DHT22;11556;51.194;3.800;2023-04-24T14:56:05;20.10;76.20
22779;DHT22;11556;51.194;3.800;2023-04-24T14:58:31;20.10;79.80
22779;DHT22;11556;51.194;3.800;2023-04-24T15:00:57;19.80;78.30
22779;DHT22;11556;51.194;3.800;2023-04-24T15:03:22;19.50;79.50
22779;DHT22;11556;51.194;3.800;2023-04-24T15:05:48;19.20;80.80
22779;DHT22;11556;51.194;3.800;2023-04-24T15:08:14;18.80;81.70
22779;DHT22;11556;51.194;3.800;2023-04-24T15:10:40;18.30;85.10
22779;DHT22;11556;51.194;3.800;2023-04-24T15:13:05;18.10;87.50
22779;DHT22;11556;51.194;3.800;2023-04-24T15:15:31;18.00;85.40
22779;DHT22;11556;51.194;3.800;2023-04-24T15:17:57;18.00;84.90
22779;DHT22;11556;51.194;3.800;2023-04-24T15:20:22;18.00;86.90
22779;DHT22;11556;51.194;3.800;2023-04-24T15:22:48;18.10;87.00
22779;DHT22;11556;51.194;3.800;2023-04-24T15:25:14;18.10;88.90
22779;DHT22;11556;51.194;3.800;2023-04-24T15:27:44;18.10;89.00
22779;DHT22;11556;51.194;3.800;2023-04-24T15:30:11;18.00;87.10
22779;DHT22;11556;51.194;3.800;2023-04-24T15:32:38;17.90;86.90
22779;DHT22;11556;51.194;3.800;2023-04-24T15:35:04;17.70;90.00
22779;DHT22;11556;51.194;3.800;2023-04-24T15:37:30;17.50;89.00
22779;DHT22;11556;51.194;3.800;2023-04-24T15:39:56;17.40;90.20
22779;DHT22;11556;51.194;3.800;2023-04-24T15:42:21;17.30;91.00